This is the latest recevied weather packets stored in our database for station/object K7AZM. If no packets are shown the sender has not sent any weather packets the latest 10 day(s).
| Time | Temp. | Humidity | Pressure | Rain* | Wind** | Luminosity | Snow |
|---|---|---|---|---|---|---|---|
| 1777953623 | 22.22° C | 40% | 1012.7 hPa | 0 mm | - | - | - |
| 1777952423 | 22.22° C | 40% | 1012.3 hPa | 0 mm | - | - | - |
| 1777949123 | 22.22° C | 40% | 1011.9 hPa | 0 mm | - | - | - |
| 1777946423 | 22.78° C | 39% | 1011.6 hPa | 0 mm | - | - | - |
| 1777945823 | 23.33° C | 38% | 1011.4 hPa | 0 mm | - | - | - |
| 1777945543 | 23.33° C | 38% | 1011.6 hPa | 0 mm | - | - | - |
| 1777944025 | 23.33° C | 36% | 1011.5 hPa | 0 mm | - | - | - |
| 1777941343 | 23.89° C | 36% | 1011.7 hPa | 0 mm | - | - | - |
| 1777940725 | 24.44° C | 35% | 1011.8 hPa | 0 mm | - | - | - |
| 1777938623 | 24.44° C | 36% | 1011.9 hPa | 0 mm | - | - | - |
| 1777938323 | 24.44° C | 37% | 1011.9 hPa | 0 mm | - | - | - |
| 1777937724 | 24.44° C | 37% | 1011.9 hPa | 0 mm | - | - | - |
| 1777937124 | 24.44° C | 36% | 1011.9 hPa | 0 mm | - | - | - |
| 1777936225 | 24.44° C | 37% | 1011.9 hPa | 0 mm | - | - | - |
| 1777934423 | 24.44° C | 36% | 1012.1 hPa | 0 mm | - | - | - |
| 1777933523 | 23.89° C | 38% | 1012.2 hPa | 0 mm | - | - | - |
| 1777931123 | 24.44° C | 37% | 1013 hPa | 0 mm | - | - | - |
| 1777930223 | 24.44° C | 37% | 1013.1 hPa | 0 mm | - | - | - |
| 1777929343 | 23.89° C | 38% | 1013.2 hPa | 0 mm | - | - | - |
| 1777929024 | 23.89° C | 38% | 1013.3 hPa | 0 mm | - | - | - |
| 1777926943 | 23.89° C | 40% | 1013.7 hPa | 0 mm | - | - | - |
| 1777924224 | 22.78° C | 43% | 1013.4 hPa | 0 mm | - | - | - |
| 1777923023 | 22.78° C | 44% | 1013.5 hPa | 0 mm | - | - | - |
| 1777922723 | 22.78° C | 44% | 1013.3 hPa | 0 mm | - | - | - |
| 1777921543 | 23.33° C | 44% | 1013.7 hPa | 0 mm | - | - | - |
* Rain latest hour (hover to see other rain measurements)
** Current wind speed in m/s (hover to see current wind gust speed)